createdAt,value
2023-12-07T00:00:14.272Z,13.17
2023-12-07T00:02:41.528Z,13.30
2023-12-07T00:05:09.305Z,12.97
2023-12-07T00:07:36.612Z,13.50
2023-12-07T00:10:04.259Z,12.27
2023-12-07T00:12:31.621Z,13.37
2023-12-07T00:14:58.968Z,13.00
2023-12-07T00:17:26.277Z,13.10
2023-12-07T00:19:56.751Z,13.53
2023-12-07T00:22:26.132Z,14.13
2023-12-07T00:24:53.989Z,13.70
2023-12-07T00:27:21.353Z,14.10
2023-12-07T00:29:49.325Z,13.63
2023-12-07T00:32:16.636Z,13.10
2023-12-07T00:34:44.205Z,13.90
2023-12-07T00:37:11.661Z,13.93
2023-12-07T00:39:38.925Z,14.83
2023-12-07T00:42:06.202Z,14.67
2023-12-07T00:44:33.559Z,14.13
2023-12-07T00:47:01.212Z,14.57
2023-12-07T00:49:28.548Z,13.80
2023-12-07T00:51:55.883Z,15.07
2023-12-07T00:54:23.871Z,15.17
2023-12-07T00:56:51.149Z,15.30
2023-12-07T00:59:18.512Z,15.73
2023-12-07T01:01:45.766Z,15.40
2023-12-07T01:04:13.152Z,15.73
2023-12-07T01:06:40.441Z,15.70
2023-12-07T01:09:07.864Z,16.13
2023-12-07T01:11:35.114Z,15.37
2023-12-07T01:14:02.369Z,16.67
2023-12-07T01:16:29.702Z,16.20
2023-12-07T01:18:57.058Z,15.40
2023-12-07T01:21:24.663Z,16.43
2023-12-07T01:23:59.474Z,17.03
2023-12-07T01:26:33.939Z,16.30
2023-12-07T01:29:01.386Z,15.53
2023-12-07T01:31:28.667Z,16.43
2023-12-07T01:33:56.084Z,15.13
2023-12-07T01:36:23.537Z,16.53
2023-12-07T01:38:50.837Z,15.87
2023-12-07T01:41:18.176Z,16.27
2023-12-07T01:43:49.051Z,15.63
2023-12-07T01:46:18.013Z,16.47
2023-12-07T01:48:49.547Z,16.63
2023-12-07T01:51:19.223Z,17.33
2023-12-07T01:53:47.080Z,16.30
2023-12-07T01:56:14.568Z,16.67
2023-12-07T01:58:41.961Z,17.03
2023-12-07T02:01:10.406Z,16.97
2023-12-07T02:03:42.276Z,18.33
2023-12-07T02:06:10.077Z,17.53
2023-12-07T02:08:42.180Z,17.57
2023-12-07T02:11:10.655Z,17.63
2023-12-07T02:13:42.648Z,17.63
2023-12-07T02:16:21.623Z,17.30
2023-12-07T02:19:01.459Z,18.00
2023-12-07T02:21:39.110Z,18.27
2023-12-07T02:24:08.082Z,17.97
2023-12-07T02:26:51.567Z,18.03
2023-12-07T02:29:18.948Z,17.53
2023-12-07T02:31:46.734Z,17.57
2023-12-07T02:34:14.218Z,17.93
2023-12-07T02:36:43.375Z,17.60
2023-12-07T02:39:13.548Z,18.40
2023-12-07T02:41:42.344Z,18.37
2023-12-07T02:44:10.058Z,18.53
2023-12-07T02:46:38.461Z,18.40
2023-12-07T02:49:05.821Z,19.07
2023-12-07T02:51:33.407Z,17.77
2023-12-07T02:54:00.723Z,17.90
2023-12-07T02:56:27.975Z,19.30
2023-12-07T02:58:55.222Z,17.60
2023-12-07T03:01:22.598Z,17.47
2023-12-07T03:03:50.006Z,18.67
2023-12-07T03:06:18.164Z,17.80
2023-12-07T03:08:45.500Z,18.77
2023-12-07T03:11:12.970Z,18.30
2023-12-07T03:13:40.386Z,17.33
2023-12-07T03:16:11.130Z,16.90
2023-12-07T03:18:39.138Z,17.50
2023-12-07T03:21:06.464Z,17.10
2023-12-07T03:23:33.838Z,16.10
2023-12-07T03:26:01.251Z,16.03
2023-12-07T03:28:28.589Z,15.90
2023-12-07T03:30:55.997Z,16.80
2023-12-07T03:33:23.377Z,15.80
2023-12-07T03:35:50.701Z,16.17
2023-12-07T03:38:17.992Z,15.07
2023-12-07T03:40:48.840Z,15.73
2023-12-07T03:43:20.286Z,15.10
2023-12-07T03:45:47.579Z,14.80
2023-12-07T03:48:14.944Z,14.80
2023-12-07T03:50:42.301Z,14.80
2023-12-07T03:53:10.746Z,14.70
2023-12-07T03:55:38.180Z,15.33
2023-12-07T03:58:06.133Z,14.90
2023-12-07T04:00:33.916Z,15.63
2023-12-07T04:03:01.307Z,15.83
2023-12-07T04:05:28.678Z,15.43
2023-12-07T04:07:56.004Z,15.00
2023-12-07T04:10:23.312Z,14.27
2023-12-07T04:12:51.023Z,14.67
2023-12-07T04:15:19.649Z,14.53
2023-12-07T04:17:47.950Z,14.77
2023-12-07T04:20:15.313Z,14.83
2023-12-07T04:22:42.825Z,14.97
2023-12-07T04:25:10.556Z,15.30
2023-12-07T04:27:37.920Z,15.53
2023-12-07T04:30:05.724Z,15.00
2023-12-07T04:32:33.049Z,14.97
2023-12-07T04:35:00.442Z,15.00
2023-12-07T04:37:27.750Z,15.43
2023-12-07T04:39:55.015Z,15.77
2023-12-07T04:42:22.549Z,14.10
2023-12-07T04:44:49.943Z,15.73
2023-12-07T04:47:17.346Z,15.17
2023-12-07T04:49:44.623Z,15.07
2023-12-07T04:52:11.990Z,52.67
2023-12-07T04:54:39.445Z,176.90
2023-12-07T04:57:07.681Z,18.93
2023-12-07T04:59:37.964Z,15.70
2023-12-07T05:02:06.179Z,15.00
2023-12-07T05:04:34.436Z,14.20
2023-12-07T05:07:04.611Z,14.00
2023-12-07T05:09:32.283Z,13.67
2023-12-07T05:11:59.615Z,14.43
2023-12-07T05:14:27.229Z,13.77
2023-12-07T05:16:56.622Z,14.27
2023-12-07T05:19:27.080Z,14.33
2023-12-07T05:21:54.596Z,14.47
2023-12-07T05:24:22.034Z,14.30
2023-12-07T05:26:49.999Z,14.30
2023-12-07T05:29:17.257Z,13.70
2023-12-07T05:31:44.840Z,13.03
2023-12-07T05:34:12.322Z,13.67
2023-12-07T05:36:39.601Z,13.10
2023-12-07T05:39:08.310Z,13.20
2023-12-07T05:41:35.680Z,13.87
2023-12-07T05:44:04.784Z,15.23
2023-12-07T05:46:32.666Z,14.73
2023-12-07T05:49:00.172Z,14.70
2023-12-07T05:51:27.670Z,14.77
2023-12-07T05:53:54.958Z,15.47
2023-12-07T05:56:22.580Z,14.97
2023-12-07T05:58:50.007Z,15.43
2023-12-07T06:01:20.599Z,14.87
2023-12-07T06:03:47.999Z,14.33
2023-12-07T06:06:15.249Z,15.27
2023-12-07T06:08:42.876Z,15.13
2023-12-07T06:11:10.161Z,14.90
2023-12-07T06:13:38.616Z,13.03
2023-12-07T06:16:06.169Z,14.37
2023-12-07T06:18:33.634Z,13.07
2023-12-07T06:21:00.964Z,12.53
2023-12-07T06:23:28.257Z,12.07
2023-12-07T06:25:55.497Z,12.30
2023-12-07T06:28:22.800Z,12.80
2023-12-07T06:30:50.170Z,11.23
2023-12-07T06:33:17.561Z,10.80
2023-12-07T06:35:44.897Z,9.87
2023-12-07T06:38:12.168Z,11.23
2023-12-07T06:40:39.521Z,11.80
2023-12-07T06:43:06.808Z,12.90
2023-12-07T06:45:34.605Z,12.30
2023-12-07T06:48:03.028Z,15.43
2023-12-07T06:50:30.381Z,10.87
2023-12-07T06:52:57.682Z,11.53
2023-12-07T06:55:25.204Z,12.13
2023-12-07T06:57:52.470Z,12.43
2023-12-07T07:00:21.454Z,12.43
2023-12-07T07:02:48.906Z,13.70
2023-12-07T07:05:16.175Z,14.67
2023-12-07T07:07:43.570Z,15.00
2023-12-07T07:10:12.252Z,14.13
2023-12-07T07:12:39.822Z,14.67
2023-12-07T07:15:09.309Z,15.60
2023-12-07T07:17:36.769Z,15.37
2023-12-07T07:20:04.411Z,15.23
2023-12-07T07:22:32.006Z,15.73
2023-12-07T07:24:59.484Z,17.70
2023-12-07T07:27:27.153Z,17.67
2023-12-07T07:29:54.714Z,15.67
2023-12-07T07:32:21.961Z,15.17
2023-12-07T07:34:49.304Z,15.83
2023-12-07T07:37:16.685Z,15.90
2023-12-07T07:39:43.944Z,14.77
2023-12-07T07:42:11.259Z,11.20
2023-12-07T07:44:38.543Z,9.97
2023-12-07T07:47:05.833Z,9.70
2023-12-07T07:49:33.161Z,10.90
2023-12-07T07:52:00.802Z,12.53
2023-12-07T07:54:28.273Z,14.13
2023-12-07T07:56:55.555Z,14.33
2023-12-07T07:59:22.863Z,16.63
2023-12-07T08:01:50.586Z,15.27
2023-12-07T08:04:18.292Z,15.77
2023-12-07T08:06:45.634Z,14.93
2023-12-07T08:09:13.198Z,15.33
2023-12-07T08:11:40.600Z,14.43
2023-12-07T08:14:07.933Z,15.07
2023-12-07T08:16:35.363Z,15.00
2023-12-07T08:19:02.793Z,14.93
2023-12-07T08:21:31.549Z,14.90
2023-12-07T08:23:59.096Z,15.83
2023-12-07T08:26:28.876Z,14.80
2023-12-07T08:28:57.762Z,14.23
2023-12-07T08:31:25.612Z,12.63
2023-12-07T08:33:53.351Z,12.90
2023-12-07T08:36:21.012Z,11.80
2023-12-07T08:38:48.405Z,13.07
2023-12-07T08:41:15.977Z,13.23
2023-12-07T08:43:44.362Z,12.50
2023-12-07T08:46:11.735Z,12.23
2023-12-07T08:48:42.501Z,11.73
2023-12-07T08:51:11.226Z,10.70
2023-12-07T08:53:39.862Z,10.93
2023-12-07T08:56:10.359Z,11.40
2023-12-07T08:58:37.679Z,11.13
2023-12-07T09:01:19.750Z,11.27
2023-12-07T09:03:53.487Z,11.33
2023-12-07T09:06:20.885Z,11.27
2023-12-07T09:08:48.252Z,10.27
2023-12-07T09:11:15.559Z,10.73
2023-12-07T09:13:42.871Z,10.27
2023-12-07T09:16:10.413Z,10.53
2023-12-07T09:18:37.818Z,10.40
2023-12-07T09:21:05.469Z,9.23
2023-12-07T09:23:32.919Z,9.40
2023-12-07T09:26:00.232Z,10.03
2023-12-07T09:28:27.608Z,9.10
2023-12-07T09:30:55.492Z,9.40
2023-12-07T09:33:22.863Z,8.20
2023-12-07T09:35:50.278Z,7.87
2023-12-07T09:38:17.782Z,8.17
2023-12-07T09:40:47.217Z,9.20
2023-12-07T09:43:14.819Z,8.33
2023-12-07T09:45:42.153Z,9.20
2023-12-07T09:48:09.883Z,7.70
2023-12-07T09:50:38.982Z,7.50
2023-12-07T09:53:09.235Z,8.27
2023-12-07T09:55:38.327Z,6.63
2023-12-07T09:58:08.865Z,6.57
2023-12-07T10:00:38.171Z,6.07
2023-12-07T10:03:10.522Z,5.63
2023-12-07T10:05:59.907Z,5.90
2023-12-07T10:08:32.188Z,5.90
2023-12-07T10:11:19.478Z,5.60
2023-12-07T10:13:47.118Z,5.93
2023-12-07T10:16:17.259Z,6.67
2023-12-07T10:18:45.695Z,7.60
2023-12-07T10:21:14.591Z,7.00
2023-12-07T10:23:45.054Z,7.33
2023-12-07T10:26:13.837Z,6.93
2023-12-07T10:28:41.336Z,6.40
2023-12-07T10:31:12.110Z,6.00
2023-12-07T10:33:39.839Z,5.57
2023-12-07T10:36:08.131Z,6.00
2023-12-07T10:38:35.646Z,6.20
2023-12-07T10:41:07.290Z,7.00
2023-12-07T10:43:42.138Z,6.20
2023-12-07T10:46:10.497Z,6.03
2023-12-07T10:48:39.231Z,5.30
2023-12-07T10:51:12.396Z,5.90
2023-12-07T10:53:45.176Z,6.83
2023-12-07T10:56:17.318Z,4.60
2023-12-07T10:58:46.322Z,4.07
2023-12-07T11:01:16.113Z,2.50
2023-12-07T11:03:44.987Z,2.67
2023-12-07T11:06:12.894Z,3.07
2023-12-07T11:08:45.537Z,3.50
2023-12-07T11:11:45.642Z,2.87
2023-12-07T11:14:17.503Z,3.50
2023-12-07T11:16:47.211Z,3.50
2023-12-07T11:19:41.184Z,3.03
2023-12-07T11:22:14.393Z,3.30
2023-12-07T11:25:01.157Z,3.10
2023-12-07T11:27:32.741Z,3.10
2023-12-07T11:30:03.966Z,2.83
2023-12-07T11:32:31.765Z,3.03
2023-12-07T11:35:08.128Z,3.03
2023-12-07T11:38:04.279Z,3.73
2023-12-07T11:40:33.296Z,4.00
2023-12-07T11:43:01.995Z,4.47
2023-12-07T11:45:58.406Z,4.03
2023-12-07T11:48:26.110Z,3.43
2023-12-07T11:51:01.591Z,3.70
2023-12-07T11:53:31.560Z,3.63
2023-12-07T11:56:03.881Z,3.30
2023-12-07T11:58:35.870Z,2.90
2023-12-07T12:01:07.171Z,4.03
2023-12-07T12:03:35.066Z,3.60
2023-12-07T12:06:06.162Z,3.80
2023-12-07T12:08:33.539Z,3.77
2023-12-07T12:11:01.605Z,3.50
2023-12-07T12:13:39.357Z,2.60
2023-12-07T12:16:07.861Z,2.50
2023-12-07T12:18:36.463Z,4.97
2023-12-07T12:21:04.642Z,3.07
2023-12-07T12:23:31.973Z,3.33
2023-12-07T12:25:59.717Z,3.20
2023-12-07T12:28:27.311Z,2.90
2023-12-07T12:30:56.017Z,4.07
2023-12-07T12:33:24.459Z,3.67
2023-12-07T12:36:06.532Z,3.10
2023-12-07T12:38:41.322Z,3.20
2023-12-07T12:41:12.552Z,3.27
2023-12-07T12:43:40.359Z,3.00
2023-12-07T12:46:07.968Z,2.93
2023-12-07T12:48:35.738Z,3.47
2023-12-07T12:51:14.936Z,3.33
2023-12-07T12:53:50.407Z,3.53
2023-12-07T12:56:21.642Z,3.27
2023-12-07T12:58:53.437Z,3.27
2023-12-07T13:01:22.665Z,3.10
2023-12-07T13:03:50.488Z,2.80
2023-12-07T13:06:18.525Z,3.13
2023-12-07T13:08:47.167Z,2.97
2023-12-07T13:11:18.914Z,2.70
2023-12-07T13:13:50.372Z,3.00
2023-12-07T13:16:18.278Z,2.87
2023-12-07T13:18:45.782Z,2.70
2023-12-07T13:21:14.127Z,3.20
2023-12-07T13:23:41.436Z,3.07
2023-12-07T13:26:08.755Z,2.90
2023-12-07T13:28:36.097Z,2.60
2023-12-07T13:31:03.654Z,3.10
2023-12-07T13:33:36.508Z,2.80
2023-12-07T13:36:10.119Z,3.00
2023-12-07T13:38:37.439Z,3.17
2023-12-07T13:41:04.956Z,3.20
2023-12-07T13:43:34.138Z,2.90
2023-12-07T13:46:02.489Z,3.23
2023-12-07T13:48:29.780Z,2.70
2023-12-07T13:50:57.060Z,2.97
2023-12-07T13:53:24.322Z,3.33
2023-12-07T13:55:52.117Z,3.17
2023-12-07T13:58:19.561Z,20.50
2023-12-07T14:00:47.522Z,3.60
2023-12-07T14:03:14.940Z,2.97
2023-12-07T14:05:42.723Z,3.27
2023-12-07T14:08:10.414Z,2.90
2023-12-07T14:10:38.050Z,2.83
2023-12-07T14:13:06.885Z,3.03
2023-12-07T14:15:44.264Z,3.27
2023-12-07T14:18:13.561Z,3.50
2023-12-07T14:20:55.516Z,3.20
2023-12-07T14:23:31.240Z,3.50
2023-12-07T14:26:02.869Z,3.30
2023-12-07T14:28:31.699Z,3.47
2023-12-07T14:31:00.347Z,3.80
2023-12-07T14:33:28.220Z,3.77
2023-12-07T14:35:56.164Z,4.33
2023-12-07T14:38:24.443Z,4.43
2023-12-07T14:40:52.178Z,4.50
2023-12-07T14:43:22.487Z,4.50
2023-12-07T14:45:50.084Z,4.60
2023-12-07T14:48:17.881Z,4.80
2023-12-07T14:50:45.552Z,4.93
2023-12-07T14:53:13.038Z,4.87
2023-12-07T14:55:40.699Z,4.83
2023-12-07T14:58:08.016Z,5.00
2023-12-07T15:00:35.354Z,4.90
2023-12-07T15:03:02.808Z,4.73
2023-12-07T15:05:30.212Z,5.40
2023-12-07T15:07:57.724Z,4.80
2023-12-07T15:10:25.018Z,5.03
2023-12-07T15:12:52.653Z,5.27
2023-12-07T15:15:20.157Z,5.20
2023-12-07T15:17:48.730Z,6.07
2023-12-07T15:20:16.437Z,5.83
2023-12-07T15:22:45.442Z,6.63
2023-12-07T15:25:14.700Z,7.80
2023-12-07T15:27:42.930Z,8.60
2023-12-07T15:30:11.329Z,9.33
2023-12-07T15:32:38.955Z,9.50
2023-12-07T15:35:07.075Z,8.87
2023-12-07T15:37:34.464Z,7.80
2023-12-07T15:40:01.752Z,7.13
2023-12-07T15:42:29.081Z,7.53
2023-12-07T15:44:56.367Z,7.93
2023-12-07T15:47:24.144Z,7.17
2023-12-07T15:49:51.574Z,8.57
2023-12-07T15:52:18.856Z,9.97
2023-12-07T15:54:46.134Z,9.70
2023-12-07T15:57:13.683Z,11.47
2023-12-07T15:59:42.163Z,10.70
2023-12-07T16:02:10.599Z,11.57
2023-12-07T16:04:39.611Z,8.13
2023-12-07T16:07:09.733Z,8.90
2023-12-07T16:09:39.841Z,8.30
2023-12-07T16:12:08.607Z,9.83
2023-12-07T16:14:38.339Z,9.30
2023-12-07T16:17:06.648Z,10.90
2023-12-07T16:19:34.131Z,9.83
2023-12-07T16:22:01.736Z,10.43
2023-12-07T16:24:29.086Z,12.67
2023-12-07T16:26:57.190Z,19.67
2023-12-07T16:29:24.478Z,13.90
2023-12-07T16:31:51.856Z,13.23
2023-12-07T16:34:19.897Z,15.60
2023-12-07T16:36:47.832Z,14.20
2023-12-07T16:39:16.105Z,13.53
2023-12-07T16:41:51.701Z,13.30
2023-12-07T16:44:22.942Z,13.43
2023-12-07T16:46:50.421Z,12.40
2023-12-07T16:49:17.867Z,14.57
2023-12-07T16:51:45.262Z,14.03
2023-12-07T16:54:12.533Z,14.20
2023-12-07T16:56:39.991Z,14.63
2023-12-07T16:59:07.378Z,15.40
2023-12-07T17:01:34.737Z,15.27
2023-12-07T17:04:02.455Z,15.60
2023-12-07T17:06:30.280Z,15.07
2023-12-07T17:11:28.934Z,14.13
2023-12-07T17:13:57.156Z,13.00
2023-12-07T17:16:24.775Z,12.80
2023-12-07T17:18:52.940Z,16.83
2023-12-07T17:21:20.373Z,16.63
2023-12-07T17:23:47.830Z,14.57
2023-12-07T17:26:15.544Z,15.13
2023-12-07T17:28:42.864Z,14.63
2023-12-07T17:31:10.656Z,15.70
2023-12-07T17:33:38.184Z,16.50
2023-12-07T17:36:05.880Z,17.53
2023-12-07T17:38:33.304Z,16.00
2023-12-07T17:41:00.595Z,16.63
2023-12-07T17:43:27.877Z,16.10
2023-12-07T17:45:57.089Z,17.10
2023-12-07T17:48:25.409Z,18.10
2023-12-07T17:50:52.908Z,17.93
2023-12-07T17:53:20.351Z,18.27
2023-12-07T17:55:47.656Z,17.47
2023-12-07T17:58:14.930Z,18.67
2023-12-07T18:00:42.295Z,21.33
2023-12-07T18:03:09.714Z,22.13
2023-12-07T18:05:37.264Z,23.90
2023-12-07T18:08:06.060Z,20.50
2023-12-07T18:10:33.388Z,19.73
2023-12-07T18:13:01.928Z,18.23
2023-12-07T18:15:29.182Z,19.37
2023-12-07T18:17:56.662Z,17.77
2023-12-07T18:20:24.023Z,18.37
2023-12-07T18:22:51.338Z,20.07
2023-12-07T18:25:18.592Z,20.00
2023-12-07T18:27:48.060Z,24.57
2023-12-07T18:30:15.539Z,24.43
2023-12-07T18:32:42.851Z,22.17
2023-12-07T18:35:10.149Z,23.27
2023-12-07T18:37:38.376Z,24.13
2023-12-07T18:40:07.033Z,23.23
2023-12-07T18:42:34.305Z,20.50
2023-12-07T18:45:02.998Z,19.30
2023-12-07T18:47:30.451Z,18.40
2023-12-07T18:49:57.822Z,17.53
2023-12-07T18:52:26.966Z,17.77
2023-12-07T18:54:54.267Z,18.50
2023-12-07T18:57:21.628Z,18.77
2023-12-07T18:59:48.974Z,19.03
2023-12-07T19:02:16.297Z,18.60
2023-12-07T19:04:44.360Z,18.30
2023-12-07T19:07:11.848Z,19.60
2023-12-07T19:09:39.371Z,19.60
2023-12-07T19:12:06.874Z,19.93
2023-12-07T19:14:34.633Z,19.57
2023-12-07T19:17:02.044Z,19.60
2023-12-07T19:19:29.633Z,19.70
2023-12-07T19:21:57.040Z,19.23
2023-12-07T19:24:24.348Z,19.07
2023-12-07T19:26:51.688Z,19.20
2023-12-07T19:29:19.236Z,20.50
2023-12-07T19:31:46.570Z,20.87
2023-12-07T19:34:15.942Z,21.57
2023-12-07T19:36:43.756Z,21.60
2023-12-07T19:39:18.241Z,21.07
2023-12-07T19:41:45.932Z,20.93
2023-12-07T19:44:13.700Z,20.60
2023-12-07T19:46:41.290Z,20.10
2023-12-07T19:49:09.498Z,19.53
2023-12-07T19:51:37.780Z,19.53
2023-12-07T19:54:05.366Z,20.63
2023-12-07T19:56:34.776Z,19.67
2023-12-07T19:59:02.112Z,21.03
2023-12-07T20:01:29.881Z,22.23
2023-12-07T20:03:57.278Z,28.90
2023-12-07T20:06:33.641Z,25.13
2023-12-07T20:09:04.534Z,21.17
2023-12-07T20:11:33.305Z,24.43
2023-12-07T20:14:00.749Z,23.10
2023-12-07T20:16:28.049Z,21.63
2023-12-07T20:18:55.588Z,23.23
2023-12-07T20:21:23.086Z,24.53
2023-12-07T20:23:50.467Z,24.70
2023-12-07T20:26:17.850Z,23.53
2023-12-07T20:28:47.116Z,22.13
2023-12-07T20:31:15.369Z,21.10
2023-12-07T20:33:44.524Z,24.33
2023-12-07T20:36:13.230Z,23.20
2023-12-07T20:38:41.009Z,22.43
2023-12-07T20:41:08.430Z,22.53
2023-12-07T20:43:35.772Z,23.53
2023-12-07T20:46:04.268Z,26.73
2023-12-07T20:48:32.028Z,28.77
2023-12-07T20:51:00.419Z,29.57
2023-12-07T20:53:27.840Z,30.53
2023-12-07T20:55:56.184Z,24.63
2023-12-07T20:58:23.648Z,27.33
2023-12-07T21:00:51.041Z,24.80
2023-12-07T21:03:18.465Z,24.30
2023-12-07T21:05:45.896Z,22.80
2023-12-07T21:08:13.598Z,23.50
2023-12-07T21:10:40.946Z,23.57
2023-12-07T21:13:08.235Z,23.43
2023-12-07T21:15:36.243Z,24.97
2023-12-07T21:18:04.206Z,24.33
2023-12-07T21:20:31.758Z,25.17
2023-12-07T21:22:59.129Z,25.27
2023-12-07T21:25:26.638Z,24.93
2023-12-07T21:27:54.013Z,26.50
2023-12-07T21:30:21.336Z,25.87
2023-12-07T21:32:48.820Z,27.17
2023-12-07T21:35:16.800Z,23.27
2023-12-07T21:37:44.127Z,25.53
2023-12-07T21:40:12.980Z,29.23
2023-12-07T21:42:40.265Z,26.63
2023-12-07T21:45:08.610Z,25.07
2023-12-07T21:47:36.013Z,24.93
2023-12-07T21:50:04.401Z,25.60
2023-12-07T21:52:32.067Z,26.80
2023-12-07T21:54:59.326Z,31.60
2023-12-07T21:57:27.339Z,31.93
2023-12-07T21:59:54.866Z,28.40
2023-12-07T22:02:22.261Z,25.50
2023-12-07T22:04:49.843Z,24.70
2023-12-07T22:07:17.538Z,24.33
2023-12-07T22:09:44.863Z,24.10
2023-12-07T22:12:12.210Z,23.33
2023-12-07T22:14:39.791Z,19.67
2023-12-07T22:17:07.540Z,21.27
2023-12-07T22:19:35.081Z,23.70
2023-12-07T22:22:02.766Z,23.03
2023-12-07T22:24:30.064Z,23.40
2023-12-07T22:26:57.491Z,21.97
2023-12-07T22:29:27.188Z,22.27
2023-12-07T22:31:55.309Z,20.87
2023-12-07T22:34:23.699Z,21.03
2023-12-07T22:36:51.092Z,21.23
2023-12-07T22:39:18.352Z,18.37
2023-12-07T22:41:45.846Z,19.77
2023-12-07T22:44:16.476Z,19.67
2023-12-07T22:46:47.168Z,20.83
2023-12-07T22:49:14.878Z,20.87
2023-12-07T22:51:42.376Z,21.20
2023-12-07T22:54:09.725Z,21.13
2023-12-07T22:56:37.162Z,22.27
2023-12-07T22:59:04.461Z,20.87
2023-12-07T23:01:31.761Z,20.80
2023-12-07T23:04:01.597Z,21.73
2023-12-07T23:06:29.067Z,20.97
2023-12-07T23:08:56.441Z,21.80
2023-12-07T23:11:23.813Z,23.17
2023-12-07T23:13:51.154Z,22.87
2023-12-07T23:16:21.105Z,22.77
2023-12-07T23:18:48.470Z,22.97
2023-12-07T23:21:15.880Z,22.33
2023-12-07T23:23:43.394Z,20.77
2023-12-07T23:26:11.451Z,20.03
2023-12-07T23:28:39.313Z,21.43
2023-12-07T23:31:06.796Z,19.73
2023-12-07T23:33:34.441Z,20.10
2023-12-07T23:36:01.917Z,18.03
2023-12-07T23:38:29.456Z,18.73
2023-12-07T23:40:56.778Z,17.03
2023-12-07T23:43:24.093Z,16.40
2023-12-07T23:45:51.394Z,18.03
2023-12-07T23:48:18.872Z,18.17
2023-12-07T23:50:46.483Z,17.37
2023-12-07T23:53:13.801Z,19.73
2023-12-07T23:55:41.132Z,25.60
2023-12-07T23:58:08.425Z,23.30
